CheckWX is a tool to help pilots better visualize weather data.  It is not intended as a substitute for an official pre-flight weather briefing.

14:00:36 UTC

LFMV TAF
Avignon-Caumont Airport
Avignon/Caumont, France
TAF LFMV 260800Z 2609/2709 VRB05KT 9999 RA SCT015 BKN040 BKN055 TEMPO 2609/2620 5000 RA BKN015 BKN040TCU PROB40 TEMPO 2609/2620 VRB15G25KT 2500 TSRA BKN010 BKN040CB

Jan-26@
09:00 UTC

Jan-26 @ 09:00 UTC

Jan-27@
09:00 UTC

Jan-27 @ 09:00 UTC

TAF LFMV 260800Z 2609/2709 VRB05KT 9999 RA SCT015 BKN040 BKN055
Wind
  • Variable at 5 KTS
Conditions
Rain
Cloud Levels
  • Scattered at 1,500' AGL
  • Broken at 4,000' AGL
  • Broken at 5,500' AGL

Jan-26@
09:00 UTC

Jan-26 @ 09:00 UTC

Jan-26@
20:00 UTC

Jan-26 @ 20:00 UTC

TEMPO 2609/2620 5000 RA BKN015 BKN040TCU

Temporary

Temporary Changes expected for less than half the time period

Conditions
Rain
Cloud Levels
  • Broken at 1,500' AGL
  • Broken at 4,000' AGL

Jan-26@
09:00 UTC

Jan-26 @ 09:00 UTC

Jan-26@
20:00 UTC

Jan-26 @ 20:00 UTC

PROB40 TEMPO 2609/2620 VRB15G25KT 2500 TSRA BKN010 BKN040CB

Temporary - 40% Likelihood

Temporary - 40% Likelihood during this time.

Wind
  • Variable at 15 KTS
  • {Gusting to 25 KTS
Conditions
Thunderstorm, Rain
Cloud Levels
  • Broken at 1,000' AGL
  • Broken at 4,000' AGL